createdAt,value
2019-02-06T00:01:01.981Z,1.60
2019-02-06T00:03:35.801Z,1.70
2019-02-06T00:06:09.836Z,1.70
2019-02-06T00:08:43.281Z,1.60
2019-02-06T00:11:17.136Z,1.50
2019-02-06T00:13:50.863Z,1.50
2019-02-06T00:16:24.686Z,1.50
2019-02-06T00:18:58.459Z,1.40
2019-02-06T00:21:32.195Z,1.40
2019-02-06T00:24:05.865Z,1.50
2019-02-06T00:26:39.575Z,1.50
2019-02-06T00:29:13.981Z,1.50
2019-02-06T00:31:47.781Z,1.50
2019-02-06T00:34:21.496Z,1.30
2019-02-06T00:36:55.388Z,1.40
2019-02-06T00:39:29.293Z,1.30
2019-02-06T00:42:03.934Z,1.30
2019-02-06T00:44:37.741Z,1.30
2019-02-06T00:47:12.512Z,1.20
2019-02-06T00:49:46.157Z,1.20
2019-02-06T00:52:19.779Z,1.20
2019-02-06T00:54:53.460Z,1.10
2019-02-06T00:57:27.284Z,1.10
2019-02-06T01:00:01.884Z,1.20
2019-02-06T01:02:36.489Z,1.00
2019-02-06T01:05:11.047Z,1.00
2019-02-06T01:07:44.769Z,1.00
2019-02-06T01:10:19.374Z,0.80
2019-02-06T01:12:53.196Z,0.80
2019-02-06T01:15:27.160Z,0.90
2019-02-06T01:18:00.965Z,1.00
2019-02-06T01:20:34.752Z,0.90
2019-02-06T01:23:08.496Z,0.80
2019-02-06T01:25:43.167Z,0.80
2019-02-06T01:28:16.849Z,0.80
2019-02-06T01:30:51.675Z,0.70
2019-02-06T01:33:26.102Z,0.60
2019-02-06T01:36:00.604Z,0.60
2019-02-06T01:38:34.332Z,0.60
2019-02-06T01:41:08.049Z,0.60
2019-02-06T01:43:41.967Z,0.70
2019-02-06T01:46:15.724Z,0.80
2019-02-06T01:48:49.456Z,0.80
2019-02-06T01:51:23.250Z,0.70
2019-02-06T01:53:57.123Z,0.60
2019-02-06T01:56:30.807Z,0.60
2019-02-06T01:59:05.452Z,0.60
2019-02-06T02:01:39.173Z,0.60
2019-02-06T02:04:12.880Z,0.60
2019-02-06T02:06:46.630Z,0.60
2019-02-06T02:09:20.462Z,0.60
2019-02-06T02:11:54.380Z,0.60
2019-02-06T02:14:29.065Z,0.60
2019-02-06T02:17:03.651Z,0.60
2019-02-06T02:19:37.678Z,0.60
2019-02-06T02:22:11.449Z,0.50
2019-02-06T02:24:45.196Z,0.50
2019-02-06T02:27:18.872Z,0.50
2019-02-06T02:29:52.734Z,0.50
2019-02-06T02:32:26.600Z,0.40
2019-02-06T02:35:00.318Z,0.50
2019-02-06T02:37:33.916Z,0.50
2019-02-06T02:40:07.609Z,0.50
2019-02-06T02:42:41.336Z,0.50
2019-02-06T02:45:15.088Z,0.40
2019-02-06T02:47:48.977Z,0.40
2019-02-06T02:50:23.637Z,0.50
2019-02-06T02:52:57.453Z,0.50
2019-02-06T02:55:31.318Z,0.50
2019-02-06T02:58:05.153Z,0.40
2019-02-06T03:00:39.012Z,0.40
2019-02-06T03:03:13.708Z,0.40
2019-02-06T03:05:47.488Z,0.40
2019-02-06T03:08:21.190Z,0.40
2019-02-06T03:10:54.874Z,0.30
2019-02-06T03:13:28.688Z,0.30
2019-02-06T03:16:02.584Z,0.30
2019-02-06T03:18:37.256Z,0.20
2019-02-06T03:21:11.899Z,0.20
2019-02-06T03:23:45.613Z,0.10
2019-02-06T03:26:19.472Z,0.10
2019-02-06T03:28:53.917Z,0.10
2019-02-06T03:31:28.461Z,0.10
2019-02-06T03:34:04.851Z,0.10
2019-02-06T03:36:40.306Z,0.10
2019-02-06T03:39:10.084Z,0.10
2019-02-06T03:41:43.717Z,0.10
2019-02-06T03:44:17.485Z,0.20
2019-02-06T03:46:51.427Z,0.10
2019-02-06T03:49:25.815Z,0.10
2019-02-06T03:51:59.526Z,0.00
2019-02-06T03:54:33.421Z,0.00
2019-02-06T03:57:07.916Z,0.00
2019-02-06T03:59:41.714Z,0.00
2019-02-06T04:02:15.448Z,0.00
2019-02-06T04:04:49.276Z,-0.10
2019-02-06T04:07:23.806Z,-0.10
2019-02-06T04:09:57.625Z,-0.10
2019-02-06T04:12:31.310Z,0.00
2019-02-06T04:15:05.241Z,-0.10
2019-02-06T04:17:39.140Z,-0.10
2019-02-06T04:20:12.810Z,-0.10
2019-02-06T04:22:46.665Z,-0.10
2019-02-06T04:25:20.365Z,-0.10
2019-02-06T04:27:54.315Z,-0.30
2019-02-06T04:30:28.258Z,-0.30
2019-02-06T04:33:02.857Z,-0.30
2019-02-06T04:35:36.658Z,-0.30
2019-02-06T04:38:10.540Z,-0.20
2019-02-06T04:40:44.400Z,-0.20
2019-02-06T04:43:18.148Z,-0.30
2019-02-06T04:45:52.841Z,-0.30
2019-02-06T04:48:27.353Z,-0.40
2019-02-06T04:51:01.126Z,-0.40
2019-02-06T04:53:35.605Z,-0.20
2019-02-06T04:56:09.303Z,-0.20
2019-02-06T04:58:44.028Z,-0.30
2019-02-06T05:01:17.828Z,-0.40
2019-02-06T05:03:51.773Z,-0.30
2019-02-06T05:06:25.501Z,-0.30
2019-02-06T05:08:59.226Z,-0.30
2019-02-06T05:11:33.059Z,-0.30
2019-02-06T05:14:07.567Z,-0.30
2019-02-06T05:16:41.283Z,-0.30
2019-02-06T05:19:15.986Z,-0.20
2019-02-06T05:21:49.716Z,-0.20
2019-02-06T05:24:23.457Z,-0.30
2019-02-06T05:26:57.267Z,-0.40
2019-02-06T05:29:31.033Z,-0.40
2019-02-06T05:32:04.738Z,-0.50
2019-02-06T05:34:38.496Z,-0.40
2019-02-06T05:37:12.259Z,-0.40
2019-02-06T05:39:46.091Z,-0.40
2019-02-06T05:42:19.950Z,-0.50
2019-02-06T05:44:53.666Z,-0.60
2019-02-06T05:47:27.653Z,-0.50
2019-02-06T05:50:02.275Z,-0.40
2019-02-06T05:52:36.116Z,-0.40
2019-02-06T05:55:10.001Z,-0.50
2019-02-06T05:57:43.959Z,-0.40
2019-02-06T06:00:18.454Z,-0.40
2019-02-06T06:02:52.277Z,-0.40
2019-02-06T06:05:26.042Z,-0.40
2019-02-06T06:08:00.590Z,-0.50
2019-02-06T06:10:34.334Z,-0.50
2019-02-06T06:13:08.992Z,-0.50
2019-02-06T06:15:42.749Z,-0.40
2019-02-06T06:18:16.385Z,-0.50
2019-02-06T06:20:50.129Z,-0.40
2019-02-06T06:23:23.829Z,-0.40
2019-02-06T06:25:57.638Z,-0.50
2019-02-06T06:28:31.646Z,-0.40
2019-02-06T06:31:05.553Z,-0.50
2019-02-06T06:33:39.288Z,-0.40
2019-02-06T06:36:13.205Z,-0.50
2019-02-06T06:38:47.049Z,-0.50
2019-02-06T06:41:21.602Z,-0.30
2019-02-06T06:43:55.301Z,-0.30
2019-02-06T18:02:32.141Z,0.30
2019-02-06T18:05:05.947Z,0.40
2019-02-06T18:07:39.684Z,0.50
2019-02-06T18:10:14.720Z,0.90
2019-02-06T18:12:48.564Z,1.10
2019-02-06T18:15:23.056Z,1.50
2019-02-06T18:17:58.301Z,1.70
2019-02-06T18:20:32.101Z,1.70
2019-02-06T18:23:05.716Z,1.80
2019-02-06T18:25:39.316Z,1.90
2019-02-06T18:28:12.912Z,2.00
2019-02-06T18:30:47.332Z,2.10
2019-02-06T18:33:21.109Z,2.10
2019-02-06T18:35:54.764Z,2.10
2019-02-06T18:38:29.252Z,2.20
2019-02-06T18:41:02.948Z,2.20
2019-02-06T18:43:37.388Z,2.10
2019-02-06T18:46:11.108Z,2.10
2019-02-06T18:48:44.800Z,2.10
2019-02-06T18:51:18.416Z,2.00
2019-02-06T18:53:52.190Z,2.00
2019-02-06T18:56:25.876Z,2.00
2019-02-06T18:59:00.412Z,2.00
2019-02-06T19:01:34.140Z,1.90
2019-02-06T19:04:07.883Z,1.90
2019-02-06T19:06:41.424Z,1.90
2019-02-06T19:09:15.099Z,2.00
2019-02-06T19:11:48.728Z,1.90
2019-02-06T19:14:22.364Z,1.90
2019-02-06T19:16:56.156Z,1.80
2019-02-06T19:19:30.672Z,1.80
2019-02-06T19:22:05.193Z,1.70
2019-02-06T19:24:39.711Z,1.70
2019-02-06T19:27:14.606Z,1.70
2019-02-06T19:29:48.140Z,1.70
2019-02-06T19:32:21.816Z,1.70
2019-02-06T19:34:55.528Z,1.70
2019-02-06T19:37:29.172Z,1.70
2019-02-06T19:40:03.680Z,1.70
2019-02-06T19:42:37.408Z,1.70
2019-02-06T19:45:13.940Z,1.80
2019-02-06T19:47:47.733Z,1.80
2019-02-06T19:50:28.645Z,1.70
2019-02-06T19:53:03.084Z,1.50
2019-02-06T19:55:36.948Z,1.40
2019-02-06T19:58:10.792Z,1.60
2019-02-06T20:00:44.410Z,1.60
2019-02-06T20:03:18.053Z,1.60
2019-02-06T20:05:51.853Z,1.50
2019-02-06T20:08:26.347Z,1.60
2019-02-06T20:11:00.084Z,1.60
2019-02-06T20:13:34.640Z,1.50
2019-02-06T20:16:09.098Z,1.50
2019-02-06T20:18:43.604Z,1.40
2019-02-06T20:21:17.337Z,1.40
2019-02-06T20:23:51.039Z,1.40
2019-02-06T20:26:24.797Z,1.40
2019-02-06T20:28:58.529Z,1.40
2019-02-06T20:31:32.361Z,1.30
2019-02-06T20:34:06.074Z,1.20
2019-02-06T20:36:40.556Z,1.30
2019-02-06T20:39:14.244Z,1.30
2019-02-06T20:41:47.961Z,1.20
2019-02-06T20:44:21.904Z,1.10
2019-02-06T20:46:55.998Z,1.20
2019-02-06T20:49:29.612Z,1.20
2019-02-06T20:52:03.348Z,1.10
2019-02-06T20:54:37.177Z,1.10
2019-02-06T20:57:15.352Z,1.10
2019-02-06T20:59:45.552Z,1.00
2019-02-06T21:02:19.436Z,1.10
2019-02-06T21:04:53.396Z,1.10
2019-02-06T21:07:27.978Z,0.90
2019-02-06T21:10:01.664Z,0.90
2019-02-06T21:12:35.432Z,0.90
2019-02-06T21:15:09.249Z,1.00
2019-02-06T21:17:42.897Z,0.90
2019-02-06T21:20:19.064Z,0.90
2019-02-06T21:22:52.905Z,0.80
2019-02-06T21:25:26.570Z,0.90
2019-02-06T21:28:00.208Z,0.80
2019-02-06T21:30:37.685Z,0.80
2019-02-06T21:33:11.340Z,0.80
2019-02-06T21:35:45.269Z,0.80
2019-02-06T21:38:19.899Z,0.80
2019-02-06T21:40:53.576Z,0.80
2019-02-06T21:43:27.408Z,0.80
2019-02-06T21:46:01.300Z,0.80
2019-02-06T21:48:35.120Z,0.80
2019-02-06T21:51:09.753Z,0.80
2019-02-06T21:53:43.500Z,0.80
2019-02-06T21:56:17.308Z,0.90
2019-02-06T21:58:51.188Z,0.70
2019-02-06T22:01:24.910Z,0.70
2019-02-06T22:03:58.609Z,0.70
2019-02-06T22:06:33.214Z,0.70
2019-02-06T22:09:06.909Z,0.70
2019-02-06T22:11:40.674Z,0.80
2019-02-06T22:14:14.341Z,0.70
2019-02-06T22:16:48.124Z,0.80
2019-02-06T22:19:21.844Z,0.70
2019-02-06T22:21:55.745Z,0.70
2019-02-06T22:24:29.508Z,0.80
2019-02-06T22:27:03.300Z,0.60
2019-02-06T22:29:37.089Z,0.60
2019-02-06T22:32:11.568Z,0.80
2019-02-06T22:34:45.349Z,0.70
2019-02-06T22:37:18.989Z,0.70
2019-02-06T22:39:52.881Z,0.60
2019-02-06T22:42:26.648Z,0.60
2019-02-06T22:45:00.414Z,0.70
2019-02-06T22:47:34.085Z,0.70
2019-02-06T22:50:08.716Z,0.80
2019-02-06T22:52:42.420Z,0.70
2019-02-06T22:55:16.160Z,0.70
2019-02-06T22:57:49.882Z,0.70
2019-02-06T23:00:40.478Z,0.70
2019-02-06T23:03:14.061Z,0.70
2019-02-06T23:05:47.740Z,0.80
2019-02-06T23:08:21.370Z,0.70
2019-02-06T23:10:55.209Z,0.70
2019-02-06T23:13:28.960Z,0.60
2019-02-06T23:16:02.841Z,0.70
2019-02-06T23:18:37.389Z,0.80
2019-02-06T23:21:12.025Z,0.80
2019-02-06T23:23:45.724Z,0.80
2019-02-06T23:26:19.586Z,0.90
2019-02-06T23:28:53.312Z,0.70
2019-02-06T23:31:27.148Z,0.70
2019-02-06T23:34:00.825Z,0.60
2019-02-06T23:36:34.620Z,0.80
2019-02-06T23:39:12.457Z,0.70
2019-02-06T23:41:46.380Z,0.70
2019-02-06T23:44:28.533Z,0.70
2019-02-06T23:46:56.201Z,0.80
2019-02-06T23:49:28.389Z,0.80
2019-02-06T23:52:02.252Z,0.80
2019-02-06T23:54:35.924Z,0.80
2019-02-06T23:57:09.623Z,0.80
2019-02-06T23:59:44.136Z,0.70
